Time;durP1;ratioP1;P1;durP2;ratioP2;P2;SDS_P1;SDS_P2;PMS_P1;PMS_P2;Temp;Humidity;BMP_temperature;BMP_pressure;BME280_temperature;BME280_humidity;BME280_pressure;Samples;Min_cycle;Max_cycle;Signal;HPM_P1;HPM_P2
2022/05/02 00:01:56;;;;;;;;;;;;;;;;;;5094032;28;19908;-66
2022/05/02 00:04:22;;;;;;;;;;;;;;;;;;5094239;28;19916;-63
2022/05/02 00:06:48;;;;;;;;;;;;;;;;;;5093130;28;20348;-67
2022/05/02 00:09:14;;;;;;;;;;;;;;;;;;5091080;28;19962;-65
2022/05/02 00:11:40;;;;;;;;;;;;;;;;;;5092367;28;19912;-65
2022/05/02 00:14:06;;;;;;;;;;;;;;;;;;5093015;28;19955;-67
2022/05/02 00:16:31;;;;;;;;;;;;;;;;;;5092315;28;19950;-66
2022/05/02 00:18:57;;;;;;;;;;;;;;;;;;5092249;28;20409;-66
2022/05/02 00:21:23;;;;;;;;;;;;;;;;;;5092409;28;19920;-62
2022/05/02 00:23:49;;;;;;;;;;;;;;;;;;5092322;28;20260;-64
2022/05/02 00:26:15;;;;;;;;;;;;;;;;;;5092815;28;19951;-65
2022/05/02 00:28:41;;;;;;;;;;;;;;;;;;5090422;28;19985;-67
2022/05/02 00:31:07;;;;;;;;;;;;;;;;;;5092216;28;20446;-65
2022/05/02 00:33:33;;;;;;;;;;;;;;;;;;5092270;28;19912;-66
2022/05/02 00:35:58;;;;;;;;;;;;;;;;;;5091890;28;19918;-65
2022/05/02 00:38:24;;;;;;;;;;;;;;;;;;5091583;28;19967;-65
2022/05/02 00:40:50;;;;;;;;;;;;;;;;;;5094481;28;20341;-67
2022/05/02 00:43:17;;;;;;;;;;;;;;;;;;5092416;28;19923;-66
2022/05/02 00:45:43;;;;;;;;;;;;;;;;;;5091571;28;19916;-64
2022/05/02 00:48:09;;;;;;;;;;;;;;;;;;5091828;28;20537;-68
2022/05/02 00:50:35;;;;;;;;;;;;;;;;;;5092400;28;19920;-67
2022/05/02 00:53:01;;;;;;;;;;;;;;;;;;5092125;28;19952;-65
2022/05/02 00:55:27;;;;;;;;;;;;;;;;;;5091296;28;19912;-64
2022/05/02 00:57:53;;;;;;;;;;;;;;;;;;5091021;28;19916;-67
2022/05/02 01:00:19;;;;;;;;;;;;;;;;;;5091421;28;20317;-66
2022/05/02 01:02:44;;;;;;;;;;;;;;;;;;5092291;28;19960;-66
2022/05/02 01:05:10;;;;;;;;;;;;;;;;;;5092914;28;19908;-70
2022/05/02 01:07:37;;;;;;;;;;;;;;;;;;5092159;28;19908;-67
2022/05/02 01:10:02;;;;;;;;;;;;;;;;;;5092110;28;19919;-66
2022/05/02 01:12:28;;;;;;;;;;;;;;;;;;5092475;28;19909;-66
2022/05/02 01:14:54;;;;;;;;;;;;;;;;;;5084652;28;19912;-66
2022/05/02 01:17:20;;;;;;;;;;;;;;;;;;5091564;28;20008;-66
2022/05/02 01:19:46;;;;;;;;;;;;;;;;;;5082863;28;19912;-65
2022/05/02 01:22:12;;;;;;;;;;;;;;;;;;5091667;28;19933;-64
2022/05/02 01:24:38;;;;;;;;;;;;;;;;;;5092900;28;19916;-64
2022/05/02 01:27:04;;;;;;;;;;;;;;;;;;5091484;28;19923;-66
2022/05/02 01:29:30;;;;;;;;;;;;;;;;;;5090549;28;19912;-67
2022/05/02 01:31:56;;;;;;;;;;;;;;;;;;5091597;28;20399;-63
2022/05/02 01:34:22;;;;;;;;;;;;;;;;;;5090970;28;19958;-65
2022/05/02 01:36:47;;;;;;;;;;;;;;;;;;5090535;28;19912;-65
2022/05/02 01:39:13;;;;;;;;;;;;;;;;;;5091084;28;20283;-65
2022/05/02 01:41:39;;;;;;;;;;;;;;;;;;5091221;28;19964;-69
2022/05/02 01:44:05;;;;;;;;;;;;;;;;;;5091019;28;19916;-67
2022/05/02 01:46:31;;;;;;;;;;;;;;;;;;5090052;28;19919;-70
2022/05/02 01:48:57;;;;;;;;;;;;;;;;;;5089717;28;19920;-69
2022/05/02 01:51:23;;;;;;;;;;;;;;;;;;5091343;28;20360;-68
2022/05/02 01:53:49;;;;;;;;;;;;;;;;;;5091330;28;19954;-65
2022/05/02 01:56:15;;;;;;;;;;;;;;;;;;5091187;28;19912;-65
2022/05/02 01:58:41;;;;;;;;;;;;;;;;;;5090449;28;20012;-66
2022/05/02 02:01:06;;;;;;;;;;;;;;;;;;5090629;28;19912;-67
2022/05/02 02:03:32;;;;;;;;;;;;;;;;;;5089475;28;19939;-67
2022/05/02 02:05:59;;;;;;;;;;;;;;;;;;5092254;28;19958;-68
2022/05/02 02:08:25;;;;;;;;;;;;;;;;;;5091170;28;19916;-68
2022/05/02 02:10:51;;;;;;;;;;;;;;;;;;5091483;28;19912;-67
2022/05/02 02:13:17;;;;;;;;;;;;;;;;;;5091552;28;20314;-67
2022/05/02 02:15:43;;;;;;;;;;;;;;;;;;5092180;28;19924;-66
2022/05/02 02:18:09;;;;;;;;;;;;;;;;;;5095158;28;19908;-66
2022/05/02 02:20:34;;;;;;;;;;;;;;;;;;5094511;28;19915;-65
2022/05/02 02:23:00;;;;;;;;;;;;;;;;;;5095025;28;19939;-69
2022/05/02 02:25:26;;;;;;;;;;;;;;;;;;5095181;28;19999;-68
2022/05/02 02:27:52;;;;;;;;;;;;;;;;;;5093307;28;20341;-68
2022/05/02 02:30:19;;;;;;;;;;;;;;;;;;5094216;28;19912;-67
2022/05/02 02:32:45;;;;;;;;;;;;;;;;;;5094594;28;19998;-65
2022/05/02 02:35:10;;;;;;;;;;;;;;;;;;5095026;28;20001;-69
2022/05/02 02:37:36;;;;;;;;;;;;;;;;;;5094177;28;19912;-67
2022/05/02 02:40:03;;;;;;;;;;;;;;;;;;5092964;28;20069;-68
2022/05/02 02:42:28;;;;;;;;;;;;;;;;;;5093732;28;19955;-67
2022/05/02 02:44:54;;;;;;;;;;;;;;;;;;5093239;28;20029;-67
2022/05/02 02:47:20;;;;;;;;;;;;;;;;;;5093445;28;20272;-66
2022/05/02 02:49:46;;;;;;;;;;;;;;;;;;5093409;28;19916;-65
2022/05/02 02:52:12;;;;;;;;;;;;;;;;;;5094668;28;20402;-67
2022/05/02 02:54:38;;;;;;;;;;;;;;;;;;5095016;28;19944;-70
2022/05/02 02:57:04;;;;;;;;;;;;;;;;;;5093027;28;20366;-67
2022/05/02 02:59:30;;;;;;;;;;;;;;;;;;5092708;28;20425;-67
2022/05/02 03:01:55;;;;;;;;;;;;;;;;;;5095160;28;19912;-68
2022/05/02 03:07:07;;;;;;;;;;;;;;;;;;5093788;28;19954;-66
2022/05/02 03:09:33;;;;;;;;;;;;;;;;;;5094081;28;19919;-68
2022/05/02 03:11:59;;;;;;;;;;;;;;;;;;5094195;28;19908;-69
2022/05/02 03:14:25;;;;;;;;;;;;;;;;;;5093967;28;19916;-68
2022/05/02 03:16:51;;;;;;;;;;;;;;;;;;5093782;28;19908;-69
2022/05/02 03:19:17;;;;;;;;;;;;;;;;;;5093292;28;19919;-68
2022/05/02 03:21:43;;;;;;;;;;;;;;;;;;5094742;28;19986;-70
2022/05/02 03:24:09;;;;;;;;;;;;;;;;;;5093460;28;20385;-67
2022/05/02 03:26:34;;;;;;;;;;;;;;;;;;5092282;28;19919;-67
2022/05/02 03:29:00;;;;;;;;;;;;;;;;;;5092389;28;19931;-66
2022/05/02 03:31:28;;;;;;;;;;;;;;;;;;5092558;28;20144;-69
2022/05/02 03:33:54;;;;;;;;;;;;;;;;;;5092967;28;19981;-66
2022/05/02 03:36:20;;;;;;;;;;;;;;;;;;5093780;28;19912;-67
2022/05/02 03:38:46;;;;;;;;;;;;;;;;;;5092913;28;19935;-65
2022/05/02 03:41:12;;;;;;;;;;;;;;;;;;5093829;28;19908;-67
2022/05/02 03:43:38;;;;;;;;;;;;;;;;;;5093706;28;19920;-68
2022/05/02 03:46:04;;;;;;;;;;;;;;;;;;5093946;28;19912;-66
2022/05/02 03:48:29;;;;;;;;;;;;;;;;;;5092815;28;19912;-65
2022/05/02 03:50:55;;;;;;;;;;;;;;;;;;5092570;28;19959;-68
2022/05/02 03:53:21;;;;;;;;;;;;;;;;;;5093197;28;19912;-69
2022/05/02 03:55:47;;;;;;;;;;;;;;;;;;5092023;28;19919;-66
2022/05/02 03:58:13;;;;;;;;;;;;;;;;;;5093153;28;19915;-68
2022/05/02 04:00:39;;;;;;;;;;;;;;;;;;5092600;28;19912;-68
2022/05/02 04:03:05;;;;;;;;;;;;;;;;;;5093449;28;19923;-69
2022/05/02 04:05:31;;;;;;;;;;;;;;;;;;5089424;28;20540;-63
2022/05/02 04:07:57;;;;;;;;;;;;;;;;;;5092606;28;20284;-67
2022/05/02 04:10:22;;;;;;;;;;;;;;;;;;5091975;28;19965;-65
2022/05/02 04:12:48;;;;;;;;;;;;;;;;;;5108713;28;19965;-65
2022/05/02 04:15:14;;;;;;;;;;;;;;;;;;5092917;28;20393;-66
2022/05/02 04:17:40;;;;;;;;;;;;;;;;;;5091782;28;19912;-67
2022/05/02 04:20:06;;;;;;;;;;;;;;;;;;5094494;28;19991;-64
2022/05/02 04:22:32;;;;;;;;;;;;;;;;;;5093837;28;19951;-65
2022/05/02 04:24:58;;;;;;;;;;;;;;;;;;5090164;28;19973;-65
2022/05/02 04:27:24;;;;;;;;;;;;;;;;;;5093410;28;20368;-64
2022/05/02 04:29:50;;;;;;;;;;;;;;;;;;5092626;28;19955;-66
2022/05/02 04:32:16;;;;;;;;;;;;;;;;;;5091519;28;19930;-68
2022/05/02 04:34:42;;;;;;;;;;;;;;;;;;5091230;28;20420;-63
2022/05/02 04:37:07;;;;;;;;;;;;;;;;;;5091109;28;19912;-66
2022/05/02 04:39:33;;;;;;;;;;;;;;;;;;5090561;28;19916;-67
2022/05/02 04:41:59;;;;;;;;;;;;;;;;;;5090842;28;19912;-63
2022/05/02 04:44:25;;;;;;;;;;;;;;;;;;5094477;28;19916;-67
2022/05/02 04:46:51;;;;;;;;;;;;;;;;;;5094609;28;19958;-68
2022/05/02 04:49:17;;;;;;;;;;;;;;;;;;5092576;28;19951;-65
2022/05/02 04:51:43;;;;;;;;;;;;;;;;;;5093471;28;19981;-64
2022/05/02 04:54:09;;;;;;;;;;;;;;;;;;5091624;28;20264;-68
2022/05/02 04:56:34;;;;;;;;;;;;;;;;;;5093229;28;19912;-66
2022/05/02 04:59:00;;;;;;;;;;;;;;;;;;5093947;28;19995;-67
2022/05/02 05:01:26;;;;;;;;;;;;;;;;;;5092976;28;19908;-63
2022/05/02 05:03:52;;;;;;;;;;;;;;;;;;5093104;28;19913;-66
2022/05/02 05:06:18;;;;;;;;;;;;;;;;;;5093487;28;19911;-65
2022/05/02 05:08:44;;;;;;;;;;;;;;;;;;5092158;28;19912;-64
2022/05/02 05:11:10;;;;;;;;;;;;;;;;;;5092565;28;20496;-65
2022/05/02 05:13:36;;;;;;;;;;;;;;;;;;5092730;28;19919;-67
2022/05/02 05:16:21;;;;;;;;;;;;;;;;;;5093935;28;19943;-66
2022/05/02 05:18:47;;;;;;;;;;;;;;;;;;5092206;28;19911;-69
2022/05/02 05:21:13;;;;;;;;;;;;;;;;;;5092806;28;20393;-67
2022/05/02 05:23:39;;;;;;;;;;;;;;;;;;5094043;28;19950;-66
2022/05/02 05:26:07;;;;;;;;;;;;;;;;;;5092928;28;19916;-64
2022/05/02 05:28:33;;;;;;;;;;;;;;;;;;5092366;28;19909;-67
2022/05/02 05:30:59;;;;;;;;;;;;;;;;;;5093636;28;19935;-64
2022/05/02 05:33:25;;;;;;;;;;;;;;;;;;5093916;28;20303;-65
2022/05/02 05:35:51;;;;;;;;;;;;;;;;;;5093921;28;19915;-68
2022/05/02 05:38:17;;;;;;;;;;;;;;;;;;5092722;28;19904;-66
2022/05/02 05:40:43;;;;;;;;;;;;;;;;;;5093764;28;19904;-66
2022/05/02 05:43:10;;;;;;;;;;;;;;;;;;5092732;28;19912;-67
2022/05/02 05:45:36;;;;;;;;;;;;;;;;;;5092698;28;19909;-67
2022/05/02 05:48:02;;;;;;;;;;;;;;;;;;5092371;28;19909;-68
2022/05/02 05:50:28;;;;;;;;;;;;;;;;;;5096936;28;19959;-66
2022/05/02 05:52:54;;;;;;;;;;;;;;;;;;5098983;28;19953;-64
2022/05/02 05:55:20;;;;;;;;;;;;;;;;;;5096182;28;19908;-64
2022/05/02 05:57:46;;;;;;;;;;;;;;;;;;5099174;28;19919;-64
2022/05/02 06:00:12;;;;;;;;;;;;;;;;;;5098444;28;19912;-61
2022/05/02 06:02:37;;;;;;;;;;;;;;;;;;5103816;28;19908;-62
2022/05/02 06:05:03;;;;;;;;;;;;;;;;;;5097555;28;20010;-64
2022/05/02 06:07:29;;;;;;;;;;;;;;;;;;5096724;28;19908;-62
2022/05/02 06:09:55;;;;;;;;;;;;;;;;;;5097258;28;20038;-67
2022/05/02 06:12:21;;;;;;;;;;;;;;;;;;5099250;28;19911;-66
2022/05/02 06:20:17;;;;;;;;;;;;;;;;;;5098731;28;19915;-63
2022/05/02 06:22:43;;;;;;;;;;;;;;;;;;5082213;28;19920;-66
2022/05/02 06:25:09;;;;;;;;;;;;;;;;;;5088415;28;19957;-63
2022/05/02 06:27:35;;;;;;;;;;;;;;;;;;5095136;28;19919;-66
2022/05/02 06:30:01;;;;;;;;;;;;;;;;;;5097200;28;20327;-62
2022/05/02 06:32:27;;;;;;;;;;;;;;;;;;5097641;28;19909;-63
2022/05/02 06:34:53;;;;;;;;;;;;;;;;;;5097490;28;19961;-63
2022/05/02 06:37:19;;;;;;;;;;;;;;;;;;5098531;28;20444;-63
2022/05/02 06:39:44;;;;;;;;;;;;;;;;;;5096963;28;19985;-63
2022/05/02 06:42:10;;;;;;;;;;;;;;;;;;5097648;28;19930;-62
2022/05/02 06:44:36;;;;;;;;;;;;;;;;;;5097724;28;19962;-67
2022/05/02 06:47:02;;;;;;;;;;;;;;;;;;5097491;28;19935;-64
2022/05/02 06:49:28;;;;;;;;;;;;;;;;;;5097056;28;20620;-65
2022/05/02 06:51:54;;;;;;;;;;;;;;;;;;5098774;28;19939;-65
2022/05/02 06:54:20;;;;;;;;;;;;;;;;;;5112721;28;19911;-67
2022/05/02 06:56:46;;;;;;;;;;;;;;;;;;5117864;28;19940;-63
2022/05/02 06:59:12;;;;;;;;;;;;;;;;;;5117358;28;19908;-65
2022/05/02 07:01:38;;;;;;;;;;;;;;;;;;5114073;28;19911;-63
2022/05/02 07:04:04;;;;;;;;;;;;;;;;;;5113667;28;19916;-65
2022/05/02 07:06:30;;;;;;;;;;;;;;;;;;5104160;28;19916;-65
2022/05/02 07:08:56;;;;;;;;;;;;;;;;;;5085295;28;19908;-65
2022/05/02 07:11:22;;;;;;;;;;;;;;;;;;5093781;28;19908;-66
2022/05/02 07:13:48;;;;;;;;;;;;;;;;;;5078850;28;19958;-64
2022/05/02 07:16:14;;;;;;;;;;;;;;;;;;5086543;28;19977;-63
2022/05/02 07:18:39;;;;;;;;;;;;;;;;;;5101028;28;20016;-62
2022/05/02 07:21:05;;;;;;;;;;;;;;;;;;5092889;28;19912;-64
2022/05/02 07:23:32;;;;;;;;;;;;;;;;;;5093659;28;19916;-64
2022/05/02 07:25:58;;;;;;;;;;;;;;;;;;5095058;28;19915;-65
2022/05/02 07:28:24;;;;;;;;;;;;;;;;;;5093426;28;19912;-64
2022/05/02 07:30:50;;;;;;;;;;;;;;;;;;5089121;28;19916;-64
2022/05/02 07:33:16;;;;;;;;;;;;;;;;;;5088778;28;19916;-68
2022/05/02 07:35:41;;;;;;;;;;;;;;;;;;5092039;28;20368;-68
2022/05/02 07:38:07;;;;;;;;;;;;;;;;;;5087877;28;19942;-65
2022/05/02 07:40:33;;;;;;;;;;;;;;;;;;5089522;28;19920;-64
2022/05/02 07:42:59;;;;;;;;;;;;;;;;;;5092877;28;19955;-66
2022/05/02 07:45:25;;;;;;;;;;;;;;;;;;5085636;28;20408;-62
2022/05/02 07:47:52;;;;;;;;;;;;;;;;;;5073237;28;19954;-64
2022/05/02 07:50:18;;;;;;;;;;;;;;;;;;5088097;28;20003;-68
2022/05/02 07:52:44;;;;;;;;;;;;;;;;;;5092789;28;20426;-63
2022/05/02 07:55:10;;;;;;;;;;;;;;;;;;5093044;28;19944;-67
2022/05/02 07:57:38;;;;;;;;;;;;;;;;;;5093006;28;19983;-66
2022/05/02 08:00:04;;;;;;;;;;;;;;;;;;5092788;28;19908;-65
2022/05/02 08:02:30;;;;;;;;;;;;;;;;;;5093069;28;20310;-63
2022/05/02 08:04:57;;;;;;;;;;;;;;;;;;5092890;28;19912;-65
2022/05/02 08:07:23;;;;;;;;;;;;;;;;;;5091401;28;20368;-66
2022/05/02 08:09:49;;;;;;;;;;;;;;;;;;5089997;28;20379;-67
2022/05/02 08:12:16;;;;;;;;;;;;;;;;;;5092294;28;20003;-66
2022/05/02 08:14:42;;;;;;;;;;;;;;;;;;5091921;28;19940;-64
2022/05/02 08:17:08;;;;;;;;;;;;;;;;;;5091683;28;19967;-65
2022/05/02 08:19:34;;;;;;;;;;;;;;;;;;5087988;28;20372;-65
2022/05/02 08:27:15;;;;;;;;;;;;;;;;;;5084922;28;19944;-66
2022/05/02 08:27:31;;;;;;;;;;;;;;;;;;5084624;28;19939;-66
2022/05/02 08:29:57;;;;;;;;;;;;;;;;;;5082322;28;19919;-67
2022/05/02 08:32:22;;;;;;;;;;;;;;;;;;5091550;28;19912;-68
2022/05/02 08:34:48;;;;;;;;;;;;;;;;;;5090782;28;19920;-66
2022/05/02 08:37:14;;;;;;;;;;;;;;;;;;5088435;28;19927;-65
2022/05/02 08:39:40;;;;;;;;;;;;;;;;;;5093118;28;19916;-66
2022/05/02 08:42:06;;;;;;;;;;;;;;;;;;5092232;28;20344;-65
2022/05/02 08:44:32;;;;;;;;;;;;;;;;;;5091784;28;20372;-66
2022/05/02 08:46:58;;;;;;;;;;;;;;;;;;5092219;28;19912;-64
2022/05/02 08:49:37;;;;;;;;;;;;;;;;;;5091536;28;20389;-68
2022/05/02 08:52:03;;;;;;;;;;;;;;;;;;5092170;28;19948;-64
2022/05/02 08:54:29;;;;;;;;;;;;;;;;;;5092012;28;20001;-63
2022/05/02 08:56:55;;;;;;;;;;;;;;;;;;5091992;28;19916;-66
2022/05/02 08:59:21;;;;;;;;;;;;;;;;;;5091434;28;19908;-67
2022/05/02 09:01:47;;;;;;;;;;;;;;;;;;5091679;28;19919;-68
2022/05/02 09:04:13;;;;;;;;;;;;;;;;;;5098951;28;20569;-64
2022/05/02 09:06:38;;;;;;;;;;;;;;;;;;5104535;28;19912;-68
2022/05/02 09:09:04;;;;;;;;;;;;;;;;;;5107029;28;19920;-68
2022/05/02 09:11:33;;;;;;;;;;;;;;;;;;5102339;28;19919;-67
2022/05/02 09:13:59;;;;;;;;;;;;;;;;;;5091676;28;19940;-67
2022/05/02 09:16:25;;;;;;;;;;;;;;;;;;5091569;28;19963;-67
2022/05/02 09:18:51;;;;;;;;;;;;;;;;;;5092045;28;19965;-68
2022/05/02 09:21:17;;;;;;;;;;;;;;;;;;5091639;28;19909;-67
2022/05/02 09:23:43;;;;;;;;;;;;;;;;;;5092186;28;19962;-66
2022/05/02 09:26:09;;;;;;;;;;;;;;;;;;5092446;28;20542;-68
2022/05/02 09:28:35;;;;;;;;;;;;;;;;;;5091125;28;19912;-66
2022/05/02 09:31:01;;;;;;;;;;;;;;;;;;5102911;28;20608;-68
2022/05/02 09:33:27;;;;;;;;;;;;;;;;;;5092266;28;20256;-65
2022/05/02 09:35:53;;;;;;;;;;;;;;;;;;5092489;28;19908;-64
2022/05/02 09:38:19;;;;;;;;;;;;;;;;;;5091198;28;19915;-68
2022/05/02 09:40:46;;;;;;;;;;;;;;;;;;5090826;28;20462;-66
2022/05/02 09:43:12;;;;;;;;;;;;;;;;;;5091276;28;19966;-66
2022/05/02 09:51:08;;;;;;;;;;;;;;;;;;5092208;28;19916;-65
2022/05/02 09:53:34;;;;;;;;;;;;;;;;;;5092450;28;19908;-67
2022/05/02 09:58:44;;;;;;;;;;;;;;;;;;5092161;28;19955;-65
2022/05/02 10:01:17;;;;;;;;;;;;;;;;;;5091070;28;19951;-64
2022/05/02 10:03:43;;;;;;;;;;;;;;;;;;5089494;28;19973;-67
2022/05/02 10:06:09;;;;;;;;;;;;;;;;;;5095346;28;20358;-65
2022/05/02 10:08:35;;;;;;;;;;;;;;;;;;5103947;28;19908;-67
2022/05/02 10:11:01;;;;;;;;;;;;;;;;;;5093886;28;19962;-67
2022/05/02 10:13:27;;;;;;;;;;;;;;;;;;5092415;28;19931;-64
2022/05/02 10:15:53;;;;;;;;;;;;;;;;;;5092477;28;19915;-66
2022/05/02 10:18:19;;;;;;;;;;;;;;;;;;5092248;28;19908;-64
2022/05/02 10:20:46;;;;;;;;;;;;;;;;;;5092029;28;19912;-65
2022/05/02 10:23:15;;;;;;;;;;;;;;;;;;5092116;28;20218;-68
2022/05/02 10:25:41;;;;;;;;;;;;;;;;;;5092030;28;19931;-67
2022/05/02 10:28:07;;;;;;;;;;;;;;;;;;5092003;28;19908;-67
2022/05/02 10:30:32;;;;;;;;;;;;;;;;;;5090885;28;20883;-68
2022/05/02 10:32:58;;;;;;;;;;;;;;;;;;5078953;28;19919;-67
2022/05/02 10:35:24;;;;;;;;;;;;;;;;;;5114116;28;19930;-65
2022/05/02 10:37:50;;;;;;;;;;;;;;;;;;5115935;28;19915;-64
2022/05/02 10:40:16;;;;;;;;;;;;;;;;;;5115698;28;19915;-64
2022/05/02 10:42:45;;;;;;;;;;;;;;;;;;5107857;28;19908;-66
2022/05/02 10:45:11;;;;;;;;;;;;;;;;;;5095961;28;20279;-63
2022/05/02 10:47:37;;;;;;;;;;;;;;;;;;5097219;28;19978;-67
2022/05/02 10:50:03;;;;;;;;;;;;;;;;;;5095337;28;20356;-67
2022/05/02 10:52:30;;;;;;;;;;;;;;;;;;5095935;28;19919;-68
2022/05/02 10:54:56;;;;;;;;;;;;;;;;;;5095516;28;20359;-66
2022/05/02 10:57:22;;;;;;;;;;;;;;;;;;5077939;28;19919;-66
2022/05/02 10:59:48;;;;;;;;;;;;;;;;;;5105297;28;19908;-65
2022/05/02 11:02:13;;;;;;;;;;;;;;;;;;5088928;28;19912;-66
2022/05/02 11:04:39;;;;;;;;;;;;;;;;;;5093392;28;20268;-66
2022/05/02 11:07:05;;;;;;;;;;;;;;;;;;5095175;28;19908;-63
2022/05/02 11:09:31;;;;;;;;;;;;;;;;;;5095015;28;20044;-65
2022/05/02 11:11:57;;;;;;;;;;;;;;;;;;5095439;28;20403;-64
2022/05/02 11:14:23;;;;;;;;;;;;;;;;;;5094382;28;19908;-67
2022/05/02 11:16:49;;;;;;;;;;;;;;;;;;5086768;28;19965;-66
2022/05/02 11:21:59;;;;;;;;;;;;;;;;;;5086915;28;19934;-66
2022/05/02 11:24:25;;;;;;;;;;;;;;;;;;5105340;28;20306;-65
2022/05/02 11:26:51;;;;;;;;;;;;;;;;;;5090655;28;19912;-63
2022/05/02 11:29:17;;;;;;;;;;;;;;;;;;5094302;28;19934;-65
2022/05/02 11:31:44;;;;;;;;;;;;;;;;;;5094675;28;20299;-65
2022/05/02 11:34:09;;;;;;;;;;;;;;;;;;5095006;28;19947;-64
2022/05/02 11:36:35;;;;;;;;;;;;;;;;;;5095926;28;19951;-66
2022/05/02 11:39:01;;;;;;;;;;;;;;;;;;5095364;28;19908;-67
2022/05/02 11:41:28;;;;;;;;;;;;;;;;;;5093116;28;19912;-67
2022/05/02 11:43:54;;;;;;;;;;;;;;;;;;5087153;28;19916;-66
2022/05/02 11:46:24;;;;;;;;;;;;;;;;;;5075975;28;20418;-66
2022/05/02 11:48:50;;;;;;;;;;;;;;;;;;5073202;28;19923;-65
2022/05/02 11:51:16;;;;;;;;;;;;;;;;;;5088272;28;19915;-65
2022/05/02 11:53:42;;;;;;;;;;;;;;;;;;5098915;28;19912;-65
2022/05/02 11:56:08;;;;;;;;;;;;;;;;;;5116219;28;19952;-66
2022/05/02 11:58:34;;;;;;;;;;;;;;;;;;5114398;28;20285;-65
2022/05/02 12:01:00;;;;;;;;;;;;;;;;;;5114581;28;19914;-65
2022/05/02 12:03:26;;;;;;;;;;;;;;;;;;5114685;28;19969;-66
2022/05/02 12:05:52;;;;;;;;;;;;;;;;;;5112931;28;20241;-67
2022/05/02 12:08:18;;;;;;;;;;;;;;;;;;5098348;28;19913;-75
2022/05/02 12:10:46;;;;;;;;;;;;;;;;;;5093804;28;20362;-75
2022/05/02 12:13:12;;;;;;;;;;;;;;;;;;5094888;28;19931;-75
2022/05/02 12:15:38;;;;;;;;;;;;;;;;;;5093422;28;20363;-75
2022/05/02 12:18:06;;;;;;;;;;;;;;;;;;5104672;28;19908;-76
2022/05/02 12:20:32;;;;;;;;;;;;;;;;;;5105440;28;20280;-76
2022/05/02 12:22:57;;;;;;;;;;;;;;;;;;5093995;28;19908;-76
2022/05/02 12:25:23;;;;;;;;;;;;;;;;;;5093677;28;19912;-75
2022/05/02 12:27:50;;;;;;;;;;;;;;;;;;5093710;28;19912;-76
2022/05/02 12:30:16;;;;;;;;;;;;;;;;;;5093138;28;20260;-76
2022/05/02 12:32:42;;;;;;;;;;;;;;;;;;5093741;28;19915;-76
2022/05/02 12:35:08;;;;;;;;;;;;;;;;;;5094467;28;19998;-77
2022/05/02 12:37:34;;;;;;;;;;;;;;;;;;5091389;28;20388;-76
2022/05/02 12:40:00;;;;;;;;;;;;;;;;;;5087977;28;20380;-77
2022/05/02 12:42:26;;;;;;;;;;;;;;;;;;5092702;28;20281;-76
2022/05/02 12:44:52;;;;;;;;;;;;;;;;;;5088764;28;19967;-77
2022/05/02 12:47:18;;;;;;;;;;;;;;;;;;5089381;28;19956;-76
2022/05/02 12:49:44;;;;;;;;;;;;;;;;;;5104337;28;19956;-76
2022/05/02 12:52:10;;;;;;;;;;;;;;;;;;5089925;28;20283;-77
2022/05/02 12:54:36;;;;;;;;;;;;;;;;;;5092249;28;20375;-76
2022/05/02 13:02:31;;;;;;;;;;;;;;;;;;5094582;28;19985;-66
2022/05/02 13:04:57;;;;;;;;;;;;;;;;;;5093024;28;19955;-65
2022/05/02 13:07:25;;;;;;;;;;;;;;;;;;5093037;28;20288;-64
2022/05/02 13:09:51;;;;;;;;;;;;;;;;;;5093863;28;19915;-64
2022/05/02 13:12:17;;;;;;;;;;;;;;;;;;5110318;28;19912;-68
2022/05/02 13:14:43;;;;;;;;;;;;;;;;;;5111771;28;20018;-66
2022/05/02 13:17:09;;;;;;;;;;;;;;;;;;5092713;28;20018;-68
2022/05/02 13:19:37;;;;;;;;;;;;;;;;;;5093626;28;20368;-67
2022/05/02 13:22:04;;;;;;;;;;;;;;;;;;5092944;28;20374;-65
2022/05/02 13:24:30;;;;;;;;;;;;;;;;;;5092973;28;19912;-66
2022/05/02 13:26:56;;;;;;;;;;;;;;;;;;5092790;28;19908;-66
2022/05/02 13:29:22;;;;;;;;;;;;;;;;;;5092283;28;19915;-65
2022/05/02 13:31:48;;;;;;;;;;;;;;;;;;5093692;28;20277;-65
2022/05/02 13:34:14;;;;;;;;;;;;;;;;;;5092669;28;19912;-68
2022/05/02 13:36:40;;;;;;;;;;;;;;;;;;5094141;28;20357;-68
2022/05/02 13:39:06;;;;;;;;;;;;;;;;;;5107260;28;19991;-65
2022/05/02 13:41:33;;;;;;;;;;;;;;;;;;5113034;28;19957;-65
2022/05/02 13:44:03;;;;;;;;;;;;;;;;;;5112788;28;19912;-67
2022/05/02 13:46:29;;;;;;;;;;;;;;;;;;5113116;28;20418;-68
2022/05/02 13:48:55;;;;;;;;;;;;;;;;;;5109216;28;19916;-68
2022/05/02 13:51:25;;;;;;;;;;;;;;;;;;5105944;28;19912;-67
2022/05/02 13:53:51;;;;;;;;;;;;;;;;;;5092561;28;19908;-67
2022/05/02 13:56:16;;;;;;;;;;;;;;;;;;5092612;28;19952;-66
2022/05/02 13:58:42;;;;;;;;;;;;;;;;;;5093164;28;19999;-66
2022/05/02 14:03:57;;;;;;;;;;;;;;;;;;5093611;28;20011;-68
2022/05/02 14:06:27;;;;;;;;;;;;;;;;;;5092012;28;19908;-68
2022/05/02 14:08:54;;;;;;;;;;;;;;;;;;5091549;28;19908;-66
2022/05/02 14:11:20;;;;;;;;;;;;;;;;;;5094454;28;19908;-68
2022/05/02 14:13:47;;;;;;;;;;;;;;;;;;5096360;28;19909;-68
2022/05/02 14:16:13;;;;;;;;;;;;;;;;;;5096329;28;19908;-68
2022/05/02 14:18:38;;;;;;;;;;;;;;;;;;5097220;28;19912;-67
2022/05/02 14:21:06;;;;;;;;;;;;;;;;;;5096085;28;19908;-67
2022/05/02 14:23:32;;;;;;;;;;;;;;;;;;5096104;28;19912;-66
2022/05/02 14:25:59;;;;;;;;;;;;;;;;;;5097481;28;19961;-67
2022/05/02 14:28:25;;;;;;;;;;;;;;;;;;5098469;28;19923;-66
2022/05/02 14:30:52;;;;;;;;;;;;;;;;;;5100332;28;20371;-67
2022/05/02 14:33:17;;;;;;;;;;;;;;;;;;5098499;28;19918;-67
2022/05/02 14:35:44;;;;;;;;;;;;;;;;;;5116345;28;19907;-66
2022/05/02 14:38:11;;;;;;;;;;;;;;;;;;5116329;28;19908;-67
2022/05/02 14:40:37;;;;;;;;;;;;;;;;;;5105793;28;19955;-64
2022/05/02 14:43:03;;;;;;;;;;;;;;;;;;5094906;28;19908;-67
2022/05/02 14:45:30;;;;;;;;;;;;;;;;;;5097833;28;20047;-66
2022/05/02 14:47:56;;;;;;;;;;;;;;;;;;5091338;28;19965;-64
2022/05/02 14:50:22;;;;;;;;;;;;;;;;;;5095267;28;19917;-68
2022/05/02 14:52:48;;;;;;;;;;;;;;;;;;5095255;28;19920;-65
2022/05/02 14:55:14;;;;;;;;;;;;;;;;;;5091149;28;20349;-65
2022/05/02 14:57:41;;;;;;;;;;;;;;;;;;5097117;28;19908;-63
2022/05/02 15:00:08;;;;;;;;;;;;;;;;;;5116947;28;19953;-65
2022/05/02 15:02:37;;;;;;;;;;;;;;;;;;5093735;28;19946;-66
2022/05/02 15:05:03;;;;;;;;;;;;;;;;;;5080093;28;19912;-66
2022/05/02 15:07:29;;;;;;;;;;;;;;;;;;5095225;28;20371;-65
2022/05/02 15:10:13;;;;;;;;;;;;;;;;;;5094973;28;20343;-66
2022/05/02 15:12:40;;;;;;;;;;;;;;;;;;5095356;28;19910;-66
2022/05/02 15:15:06;;;;;;;;;;;;;;;;;;5096677;28;19908;-65
2022/05/02 15:17:33;;;;;;;;;;;;;;;;;;5095239;28;19961;-64
2022/05/02 15:19:59;;;;;;;;;;;;;;;;;;5094798;28;19912;-78
2022/05/02 15:22:25;;;;;;;;;;;;;;;;;;5095398;28;20459;-66
2022/05/02 15:25:02;;;;;;;;;;;;;;;;;;5095158;28;20011;-65
2022/05/02 15:36:39;;;;;;;;;;;;;;;;;;5094816;28;19908;-64
2022/05/02 15:38:29;;;;;;;;;;;;;;;;;;5093476;28;19915;-66
2022/05/02 15:40:55;;;;;;;;;;;;;;;;;;5092961;28;19908;-63
2022/05/02 15:43:21;;;;;;;;;;;;;;;;;;5094568;28;19915;-66
2022/05/02 15:45:46;;;;;;;;;;;;;;;;;;5094554;28;20403;-64
2022/05/02 15:48:12;;;;;;;;;;;;;;;;;;5093671;28;20261;-66
2022/05/02 15:50:38;;;;;;;;;;;;;;;;;;5093582;28;19908;-64
2022/05/02 15:53:04;;;;;;;;;;;;;;;;;;5094685;28;19908;-63
2022/05/02 15:55:30;;;;;;;;;;;;;;;;;;5094497;28;20431;-74
2022/05/02 15:57:56;;;;;;;;;;;;;;;;;;5094361;28;19962;-79
2022/05/02 16:00:23;;;;;;;;;;;;;;;;;;5093915;28;20053;-79
2022/05/02 16:02:49;;;;;;;;;;;;;;;;;;5094198;28;19915;-79
2022/05/02 16:05:15;;;;;;;;;;;;;;;;;;5094218;28;19912;-79
2022/05/02 16:10:32;;;;;;;;;;;;;;;;;;5095294;28;20421;-78
2022/05/02 16:12:58;;;;;;;;;;;;;;;;;;5094062;28;20268;-79
2022/05/02 16:15:26;;;;;;;;;;;;;;;;;;5095423;28;19998;-77
2022/05/02 16:17:52;;;;;;;;;;;;;;;;;;5093854;28;20382;-76
2022/05/02 16:20:18;;;;;;;;;;;;;;;;;;5093588;28;20319;-78
2022/05/02 16:22:45;;;;;;;;;;;;;;;;;;5093002;28;20356;-77
2022/05/02 16:25:17;;;;;;;;;;;;;;;;;;5086416;28;20353;-78
2022/05/02 16:27:43;;;;;;;;;;;;;;;;;;5094982;28;20626;-73
2022/05/02 16:30:10;;;;;;;;;;;;;;;;;;5096487;28;20356;-69
2022/05/02 16:32:36;;;;;;;;;;;;;;;;;;5112809;28;19912;-66
2022/05/02 16:35:02;;;;;;;;;;;;;;;;;;5100315;28;19908;-66
2022/05/02 16:37:28;;;;;;;;;;;;;;;;;;5115409;28;19918;-69
2022/05/02 16:39:54;;;;;;;;;;;;;;;;;;5105260;28;19942;-71
2022/05/02 16:42:21;;;;;;;;;;;;;;;;;;5113930;28;19998;-70
2022/05/02 16:44:47;;;;;;;;;;;;;;;;;;5113706;28;19912;-69
2022/05/02 16:47:13;;;;;;;;;;;;;;;;;;5115257;28;19907;-69
2022/05/02 16:49:39;;;;;;;;;;;;;;;;;;5113437;28;19916;-70
2022/05/02 16:52:05;;;;;;;;;;;;;;;;;;5114561;28;19947;-70
2022/05/02 16:54:31;;;;;;;;;;;;;;;;;;5113754;28;20373;-70
2022/05/02 16:56:57;;;;;;;;;;;;;;;;;;5097784;28;20368;-70
2022/05/02 16:59:23;;;;;;;;;;;;;;;;;;5091522;28;19918;-72
2022/05/02 17:01:49;;;;;;;;;;;;;;;;;;5092799;28;19915;-73
2022/05/02 17:04:15;;;;;;;;;;;;;;;;;;5092064;28;19923;-71
2022/05/02 17:06:42;;;;;;;;;;;;;;;;;;5091572;28;19915;-71
2022/05/02 17:09:09;;;;;;;;;;;;;;;;;;5092033;28;19916;-70
2022/05/02 17:11:35;;;;;;;;;;;;;;;;;;5086557;28;19958;-73
2022/05/02 17:14:00;;;;;;;;;;;;;;;;;;5092795;28;19916;-70
2022/05/02 17:16:26;;;;;;;;;;;;;;;;;;5086530;28;20383;-71
2022/05/02 17:18:52;;;;;;;;;;;;;;;;;;5097439;28;19954;-64
2022/05/02 17:21:18;;;;;;;;;;;;;;;;;;5090217;28;19912;-62